Wheat Ridge, CO (80033)

6:37 AM MST on February 08, 2016 (GMT -0700)
Crown Hill Park | | Change Station
CLOSE
Current Station
Personal Weather Station
Location: Wheat Ridge, CO
Elevation: 5480 ft
Nearby Weather Stations

Elev 5480 ft 39.77 °N, 105.10 °W | Updated 1 minute ago

Partly Cloudy
Partly Cloudy
20.4 °F
Feels Like 20 °F
N
3.0
Wind Variable Wind from WNW

Today
High -- | Low -- °F
--% Chance of Precip.
Yesterday
High -- | Low -- °F
Precip. -- in
Pressure 30.33 in
Visibility 30.0 miles
Clouds Scattered Clouds 12000 ft
Windchill 20 °F
Dew Point 17 °F
Humidity 87%
Rainfall 0.00 in
Snow Depth Not available.
7:01 AM 5:27 PM
Waning Crescent, 0% visible
METAR KBJC 081252Z 29004KT 30SM SCT120 M05/M07 A3033
Pressure 30.33 in
Visibility 30.0 miles
Clouds Scattered Clouds 12000 ft
Windchill 20 °F
Dew Point 17 °F
Humidity 87%
Rainfall 0.00 in
Snow Depth Not available.
7:01 AM 5:27 PM
Waning Crescent, 0% visible
METAR KBJC 081252Z 29004KT 30SM SCT120 M05/M07 A3033

10-Day Weather Forecast

Almanac

Astronomy

Feb. 08, 2016 Rise Set
Actual Time
Civil Twilight
Nautical Twilight
Astronomical Twilight
Moon
Length of Visible Light
Length of Day
Tomorrow will be .
, % of the Moon is Illuminated

Today's Extremes

State Highs State Lows

Community

WunderPhotos

Upload Photos

1,891,434 photos uploaded!

WunderBlog® & News

Nearby

Air Quality

  Air Quality AQ Index Pollutant
Not available.

Snow Depth

Station Depth Elevation

Earthquake Activity

City Distance Mag. Time & Date
Minimum magnitude displayed is 2.5.

Coastal Water Temperatures

Place Temperature

Stations

Nearby Weather Stations

Station Location Temp. Windchill Dew Point Humidity Wind Precip. Elev Updated Type
                   

Watches & Warnings

There are currently no watches in effect.